Wetterdaten: Samstag, 22.07.2017
Datum Zeit Temp. A. Feuchte A. Luftdruck Regen Wind Richtung Richtung Sonnenschein Helligkeit Solar
22.07.2017 00:01 21,4 C 58 % 1008,6 hPa 0,0 l/m 2,3 km/h (1 Bft) O-SO45 105 0 min 0 lux 0 W/m
22.07.2017 00:05 21,3 C 59 % 1008,6 hPa 0,0 l/m 6,7 km/h (2 Bft) O-SO22.5 110 0 min 0 lux 0 W/m
22.07.2017 00:10 21,3 C 59 % 1008,6 hPa 0,0 l/m 0,6 km/h (0 Bft) O22.5 80 0 min 0 lux 0 W/m
22.07.2017 00:16 21,1 C 59 % 1008,6 hPa 0,0 l/m 0,0 km/h (0 Bft) O 80 0 min 0 lux 0 W/m
22.07.2017 00:21 21,0 C 60 % 1008,6 hPa 0,0 l/m 0,0 km/h (0 Bft) O 80 0 min 0 lux 0 W/m
22.07.2017 00:25 21,0 C 60 % 1008,6 hPa 0,0 l/m 0,0 km/h (0 Bft) O 80 0 min 0 lux 0 W/m
22.07.2017 00:30 20,9 C 60 % 1007,6 hPa 0,0 l/m 0,0 km/h (0 Bft) O 80 0 min 0 lux 0 W/m
22.07.2017 00:35 20,9 C 60 % 1007,6 hPa 0,0 l/m 0,0 km/h (0 Bft) O 80 0 min 0 lux 0 W/m
22.07.2017 00:40 20,9 C 60 % 1008,6 hPa 0,0 l/m 0,0 km/h (0 Bft) O 80 0 min 0 lux 0 W/m
22.07.2017 00:46 20,9 C 60 % 1008,6 hPa 0,0 l/m 0,0 km/h (0 Bft) O 80 0 min 0 lux 0 W/m
22.07.2017 00:51 20,3 C 63 % 1008,6 hPa 0,0 l/m 0,0 km/h (0 Bft) O 80 0 min 0 lux 0 W/m
22.07.2017 00:55 20,3 C 63 % 1008,6 hPa 0,0 l/m 0,0 km/h (0 Bft) O 80 0 min 0 lux 0 W/m
22.07.2017 01:00 20,2 C 63 % 1008,6 hPa 0,0 l/m 0,0 km/h (0 Bft) O 80 0 min 0 lux 0 W/m
22.07.2017 01:06 20,3 C 63 % 1008,6 hPa 0,0 l/m 0,0 km/h (0 Bft) O 80 0 min 0 lux 0 W/m
22.07.2017 01:10 20,4 C 62 % 1008,6 hPa 0,0 l/m 0,0 km/h (0 Bft) O 80 0 min 0 lux 0 W/m
22.07.2017 01:15 20,4 C 62 % 1008,6 hPa 0,0 l/m 0,0 km/h (0 Bft) O 80 0 min 0 lux 0 W/m
22.07.2017 01:20 20,4 C 62 % 1008,6 hPa 0,0 l/m 0,0 km/h (0 Bft) O 80 0 min 0 lux 0 W/m
22.07.2017 01:25 20,4 C 63 % 1008,6 hPa 0,0 l/m 0,0 km/h (0 Bft) O 80 0 min 0 lux 0 W/m
22.07.2017 01:31 20,4 C 63 % 1008,6 hPa 0,0 l/m 2,8 km/h (1 Bft) O-NO 60 0 min 0 lux 0 W/m
22.07.2017 01:36 20,6 C 62 % 1008,6 hPa 0,0 l/m 7,0 km/h (2 Bft) O-NO 70 0 min 0 lux 0 W/m
22.07.2017 01:40 20,6 C 62 % 1008,6 hPa 0,0 l/m 5,4 km/h (2 Bft) O-NO22.5 70 0 min 0 lux 0 W/m
22.07.2017 01:45 20,6 C 62 % 1008,6 hPa 0,0 l/m 5,9 km/h (2 Bft) O-NO22.5 65 0 min 0 lux 0 W/m
22.07.2017 01:50 20,6 C 62 % 1008,6 hPa 0,0 l/m 6,5 km/h (2 Bft) O-NO22.5 70 0 min 0 lux 0 W/m
22.07.2017 01:56 20,8 C 62 % 1008,6 hPa 0,0 l/m 7,6 km/h (2 Bft) O22.5 90 0 min 0 lux 0 W/m
22.07.2017 02:01 20,9 C 62 % 1008,6 hPa 0,0 l/m 6,8 km/h (2 Bft) O22.5 95 0 min 0 lux 0 W/m
22.07.2017 02:05 20,9 C 62 % 1008,6 hPa 0,0 l/m 4,7 km/h (1 Bft) O-NO 70 0 min 0 lux 0 W/m
22.07.2017 02:10 20,9 C 62 % 1008,6 hPa 0,0 l/m 4,2 km/h (1 Bft) O-NO 70 0 min 0 lux 0 W/m
22.07.2017 02:16 21,0 C 62 % 1007,6 hPa 0,0 l/m 5,7 km/h (2 Bft) O22.5 90 0 min 0 lux 0 W/m
22.07.2017 02:21 20,9 C 62 % 1007,6 hPa 0,0 l/m 1,0 km/h (0 Bft) O 95 0 min 0 lux 0 W/m
22.07.2017 02:25 20,9 C 62 % 1007,6 hPa 0,0 l/m 6,1 km/h (2 Bft) O 95 0 min 0 lux 0 W/m
22.07.2017 02:30 20,8 C 62 % 1007,6 hPa 0,0 l/m 0,0 km/h (0 Bft) O 95 0 min 0 lux 0 W/m
22.07.2017 02:35 20,8 C 62 % 1007,6 hPa 0,0 l/m 0,0 km/h (0 Bft) O 95 0 min 0 lux 0 W/m
22.07.2017 02:41 20,6 C 63 % 1007,6 hPa 0,0 l/m 0,0 km/h (0 Bft) O 95 0 min 0 lux 0 W/m
22.07.2017 02:46 20,5 C 64 % 1007,6 hPa 0,0 l/m 0,0 km/h (0 Bft) O 95 0 min 0 lux 0 W/m
22.07.2017 02:50 20,5 C 64 % 1007,6 hPa 0,0 l/m 0,0 km/h (0 Bft) O 95 0 min 0 lux 0 W/m
22.07.2017 02:55 20,2 C 64 % 1007,6 hPa 0,0 l/m 0,0 km/h (0 Bft) O 95 0 min 0 lux 0 W/m
22.07.2017 03:00 20,2 C 64 % 1007,6 hPa 0,0 l/m 0,0 km/h (0 Bft) O 95 0 min 0 lux 0 W/m
22.07.2017 03:06 20,2 C 64 % 1007,6 hPa 0,0 l/m 0,0 km/h (0 Bft) O 95 0 min 0 lux 0 W/m
22.07.2017 03:10 20,4 C 66 % 1007,6 hPa 0,0 l/m 0,3 km/h (0 Bft) O 95 0 min 0 lux 0 W/m
22.07.2017 03:15 20,4 C 66 % 1008,6 hPa 0,0 l/m 0,0 km/h (0 Bft) O 95 0 min 0 lux 0 W/m
22.07.2017 03:20 20,4 C 66 % 1008,6 hPa 0,0 l/m 0,0 km/h (0 Bft) O 95 0 min 0 lux 0 W/m
22.07.2017 03:26 20,0 C 67 % 1008,6 hPa 0,0 l/m 0,0 km/h (0 Bft) O 95 0 min 0 lux 0 W/m
22.07.2017 03:31 20,0 C 67 % 1008,6 hPa 0,0 l/m 4,5 km/h (1 Bft) O22.5 80 0 min 0 lux 0 W/m
22.07.2017 03:35 20,1 C 66 % 1008,6 hPa 0,0 l/m 5,1 km/h (1 Bft) O-SO22.5 110 0 min 0 lux 0 W/m
22.07.2017 03:40 20,1 C 66 % 1008,6 hPa 0,0 l/m 7,1 km/h (2 Bft) O22.5 95 0 min 0 lux 0 W/m
22.07.2017 03:45 20,0 C 66 % 1008,6 hPa 0,0 l/m 7,0 km/h (2 Bft) O-SO22.5 105 0 min 0 lux 0 W/m
22.07.2017 03:51 20,0 C 66 % 1008,6 hPa 0,0 l/m 8,7 km/h (2 Bft) O-SO22.5 105 0 min 0 lux 0 W/m
22.07.2017 03:56 19,8 C 68 % 1008,6 hPa 0,0 l/m 7,6 km/h (2 Bft) O-SO22.5 105 0 min 0 lux 0 W/m
22.07.2017 04:00 19,8 C 68 % 1008,6 hPa 0,0 l/m 8,9 km/h (2 Bft) O-SO45 105 0 min 0 lux 0 W/m
22.07.2017 04:05 19,9 C 69 % 1008,6 hPa 0,0 l/m 10,3 km/h (2 Bft) SO45 135 0 min 0 lux 0 W/m
22.07.2017 04:11 20,0 C 69 % 1008,6 hPa 0,0 l/m 11,0 km/h (2 Bft) SO45 145 0 min 0 lux 0 W/m
22.07.2017 04:16 20,0 C 69 % 1008,6 hPa 0,0 l/m 14,3 km/h (3 Bft) S-SO45 155 0 min 0 lux 0 W/m
22.07.2017 04:20 20,3 C 69 % 1008,6 hPa 0,0 l/m 9,4 km/h (2 Bft) SO45 140 0 min 0 lux 0 W/m
22.07.2017 04:25 20,4 C 69 % 1008,6 hPa 0,0 l/m 19,0 km/h (3 Bft) S-SO45 160 0 min 0 lux 0 W/m
22.07.2017 04:30 20,4 C 70 % 1008,6 hPa 0,0 l/m 25,0 km/h (4 Bft) S-SO45 165 0 min 0 lux 0 W/m
22.07.2017 04:36 20,4 C 70 % 1008,6 hPa 0,0 l/m 21,1 km/h (4 Bft) S-SO22.5 160 0 min 0 lux 0 W/m
22.07.2017 04:41 20,3 C 70 % 1008,6 hPa 0,0 l/m 15,4 km/h (3 Bft) S-SO45 160 0 min 0 lux 0 W/m
22.07.2017 04:45 20,2 C 71 % 1008,6 hPa 0,0 l/m 20,9 km/h (4 Bft) S-SO45 165 0 min 0 lux 0 W/m
22.07.2017 04:50 20,2 C 71 % 1008,6 hPa 0,0 l/m 20,8 km/h (4 Bft) S-SO45 165 0 min 0 lux 0 W/m
22.07.2017 04:55 20,1 C 71 % 1008,6 hPa 0,0 l/m 21,9 km/h (4 Bft) S-SO22.5 155 0 min 0 lux 0 W/m
22.07.2017 05:00 20,0 C 72 % 1008,6 hPa 0,0 l/m 22,3 km/h (4 Bft) S-SO45 160 0 min 0 lux 0 W/m
22.07.2017 05:05 19,9 C 72 % 1008,6 hPa 0,0 l/m 17,5 km/h (3 Bft) S-SO22.5 150 0 min 0 lux 0 W/m
22.07.2017 05:10 19,9 C 72 % 1008,6 hPa 0,0 l/m 19,0 km/h (3 Bft) S45 170 0 min 0 lux 0 W/m
22.07.2017 05:15 19,6 C 74 % 1008,6 hPa 0,0 l/m 12,6 km/h (3 Bft) S22.5 170 0 min 0 lux 0 W/m
22.07.2017 05:21 19,6 C 74 % 1008,6 hPa 0,0 l/m 16,8 km/h (3 Bft) S-SO22.5 160 0 min 0 lux 0 W/m
22.07.2017 05:26 19,6 C 74 % 1008,6 hPa 0,0 l/m 11,8 km/h (2 Bft) S-SO22.5 155 0 min 26 lux 0 W/m
22.07.2017 05:30 19,4 C 74 % 1008,6 hPa 0,0 l/m 18,3 km/h (3 Bft) S-SO45 165 0 min 64 lux 0 W/m
22.07.2017 05:35 19,4 C 74 % 1008,6 hPa 0,0 l/m 15,1 km/h (3 Bft) S-SO22.5 165 0 min 105 lux 0 W/m
22.07.2017 05:40 19,3 C 75 % 1008,6 hPa 0,0 l/m 11,3 km/h (2 Bft) S22.5 170 0 min 162 lux 0 W/m
22.07.2017 05:46 19,2 C 75 % 1008,6 hPa 0,0 l/m 12,6 km/h (3 Bft) S22.5 170 0 min 229 lux 0 W/m
22.07.2017 05:51 19,1 C 76 % 1008,6 hPa 0,0 l/m 13,3 km/h (3 Bft) S-SO22.5 160 0 min 324 lux 2 W/m
22.07.2017 05:55 19,1 C 76 % 1008,6 hPa 0,0 l/m 13,2 km/h (3 Bft) S-SO45 160 0 min 416 lux 3 W/m
22.07.2017 06:00 19,1 C 76 % 1008,6 hPa 0,0 l/m 12,5 km/h (2 Bft) S22.5 170 0 min 467 lux 3 W/m
22.07.2017 06:06 19,0 C 76 % 1008,7 hPa 0,0 l/m 12,5 km/h (2 Bft) S-SO22.5 160 0 min 589 lux 4 W/m
22.07.2017 06:11 18,9 C 76 % 1008,7 hPa 0,0 l/m 12,0 km/h (2 Bft) S-SO22.5 160 0 min 660 lux 5 W/m
22.07.2017 06:15 18,9 C 76 % 1008,7 hPa 0,0 l/m 10,9 km/h (2 Bft) S-SO22.5 160 0 min 881 lux 6 W/m
22.07.2017 06:20 18,8 C 76 % 1008,7 hPa 0,0 l/m 9,8 km/h (2 Bft) S-SO22.5 155 0 min 1,07 klux 7 W/m
22.07.2017 06:25 18,8 C 77 % 1008,7 hPa 0,0 l/m 9,2 km/h (2 Bft) S22.5 175 0 min 1,33 klux 9 W/m
22.07.2017 06:31 18,8 C 77 % 1008,7 hPa 0,0 l/m 9,7 km/h (2 Bft) S-SO22.5 160 0 min 1,62 klux 11 W/m
22.07.2017 06:36 18,8 C 77 % 1008,7 hPa 0,0 l/m 6,7 km/h (2 Bft) S-SO 160 0 min 2,08 klux 14 W/m
22.07.2017 06:40 18,8 C 77 % 1008,7 hPa 0,0 l/m 5,8 km/h (2 Bft) S-SO22.5 155 0 min 2,83 klux 19 W/m
22.07.2017 06:45 18,8 C 77 % 1008,7 hPa 0,0 l/m 10,1 km/h (2 Bft) S-SO22.5 155 0 min 3,54 klux 24 W/m
22.07.2017 06:50 18,7 C 78 % 1008,7 hPa 0,0 l/m 7,4 km/h (2 Bft) S-SO 160 0 min 4,19 klux 29 W/m
22.07.2017 06:56 18,8 C 78 % 1008,7 hPa 0,0 l/m 6,9 km/h (2 Bft) SO 145 0 min 4,47 klux 31 W/m
22.07.2017 07:01 18,7 C 78 % 1008,7 hPa 0,0 l/m 3,4 km/h (1 Bft) SO 140 0 min 8,54 klux 58 W/m
22.07.2017 07:05 18,8 C 78 % 1009,7 hPa 0,0 l/m 7,3 km/h (2 Bft) S-SO 155 0 min 12,6 klux 86 W/m
22.07.2017 07:10 19,2 C 79 % 1009,7 hPa 0,0 l/m 7,7 km/h (2 Bft) SO 145 0 min 14,6 klux 100 W/m
22.07.2017 07:16 19,3 C 78 % 1009,6 hPa 0,0 l/m 7,4 km/h (2 Bft) S-SO22.5 150 6 min 17,0 klux 116 W/m
22.07.2017 07:21 19,6 C 78 % 1009,6 hPa 0,0 l/m 8,5 km/h (2 Bft) S-SO22.5 155 5 min 18,8 klux 129 W/m
22.07.2017 07:25 19,9 C 77 % 1009,6 hPa 0,0 l/m 8,7 km/h (2 Bft) S-SO22.5 150 4 min 20,6 klux 141 W/m
22.07.2017 07:30 20,0 C 77 % 1009,6 hPa 0,0 l/m 10,6 km/h (2 Bft) S-SO22.5 155 5 min 22,1 klux 151 W/m
22.07.2017 07:35 20,3 C 76 % 1009,6 hPa 0,0 l/m 6,7 km/h (2 Bft) SO 145 5 min 24,7 klux 169 W/m
22.07.2017 07:41 20,5 C 75 % 1009,6 hPa 0,0 l/m 8,3 km/h (2 Bft) SO22.5 145 6 min 28,0 klux 192 W/m
22.07.2017 07:46 20,8 C 75 % 1009,6 hPa 0,0 l/m 5,1 km/h (1 Bft) S-SO22.5 150 5 min 29,3 klux 200 W/m
22.07.2017 07:50 21,1 C 74 % 1008,6 hPa 0,0 l/m 0,9 km/h (0 Bft) O-SO22.5 105 4 min 30,7 klux 210 W/m
22.07.2017 07:55 21,3 C 72 % 1008,6 hPa 0,0 l/m 7,0 km/h (2 Bft) O-SO22.5 115 5 min 31,9 klux 218 W/m
22.07.2017 08:00 21,3 C 71 % 1008,6 hPa 0,0 l/m 10,1 km/h (2 Bft) SO22.5 125 5 min 32,9 klux 225 W/m
22.07.2017 08:05 21,4 C 70 % 1009,6 hPa 0,0 l/m 10,5 km/h (2 Bft) S-SO22.5 165 5 min 33,7 klux 231 W/m
22.07.2017 08:10 21,8 C 70 % 1009,6 hPa 0,0 l/m 10,6 km/h (2 Bft) S-SO45 155 5 min 36,3 klux 248 W/m
22.07.2017 08:15 21,9 C 69 % 1009,6 hPa 0,0 l/m 11,7 km/h (2 Bft) S-SO22.5 160 5 min 37,1 klux 254 W/m
22.07.2017 08:20 21,9 C 69 % 1009,6 hPa 0,0 l/m 10,6 km/h (2 Bft) S-SO22.5 155 5 min 37,1 klux 254 W/m
22.07.2017 08:26 21,9 C 69 % 1009,6 hPa 0,0 l/m 11,7 km/h (2 Bft) S-SO22.5 150 6 min 37,1 klux 254 W/m
22.07.2017 08:31 21,6 C 68 % 1009,6 hPa 0,0 l/m 12,4 km/h (2 Bft) S-SO22.5 150 0 min 14,6 klux 100 W/m
22.07.2017 08:35 21,6 C 68 % 1009,6 hPa 0,0 l/m 16,3 km/h (3 Bft) S-SO22.5 165 4 min 39,2 klux 268 W/m
22.07.2017 08:40 21,8 C 68 % 1009,6 hPa 0,0 l/m 14,0 km/h (3 Bft) S22.5 175 5 min 39,3 klux 269 W/m
22.07.2017 08:45 21,8 C 68 % 1009,6 hPa 0,0 l/m 15,3 km/h (3 Bft) S22.5 175 5 min 39,6 klux 271 W/m
22.07.2017 08:51 22,4 C 68 % 1009,6 hPa 0,0 l/m 16,8 km/h (3 Bft) S-SO22.5 165 6 min 40,4 klux 276 W/m
22.07.2017 08:56 22,4 C 68 % 1009,6 hPa 0,0 l/m 17,3 km/h (3 Bft) S-SO22.5 165 5 min 42,3 klux 289 W/m
22.07.2017 09:00 22,4 C 67 % 1009,6 hPa 0,0 l/m 16,5 km/h (3 Bft) S22.5 170 4 min 42,2 klux 289 W/m
22.07.2017 09:06 22,4 C 65 % 1009,6 hPa 0,0 l/m 16,5 km/h (3 Bft) S22.5 185 6 min 43,7 klux 299 W/m
22.07.2017 09:11 22,7 C 63 % 1009,6 hPa 0,0 l/m 14,1 km/h (3 Bft) S22.5 175 5 min 44,8 klux 306 W/m
22.07.2017 09:15 22,7 C 63 % 1009,6 hPa 0,0 l/m 16,3 km/h (3 Bft) S45 180 4 min 45,7 klux 313 W/m
22.07.2017 09:20 23,3 C 63 % 1009,6 hPa 0,0 l/m 15,5 km/h (3 Bft) S45 185 5 min 47,1 klux 322 W/m
22.07.2017 09:25 23,3 C 63 % 1009,6 hPa 0,0 l/m 15,3 km/h (3 Bft) S-SW22.5 200 5 min 47,7 klux 326 W/m
22.07.2017 09:30 23,7 C 59 % 1009,6 hPa 0,0 l/m 14,4 km/h (3 Bft) S45 190 5 min 48,8 klux 334 W/m
22.07.2017 09:36 23,8 C 56 % 1009,6 hPa 0,0 l/m 14,8 km/h (3 Bft) S-SW45 205 6 min 50,8 klux 347 W/m
22.07.2017 09:41 24,0 C 56 % 1009,6 hPa 0,0 l/m 13,6 km/h (3 Bft) S22.5 185 5 min 51,8 klux 354 W/m
22.07.2017 09:45 24,1 C 56 % 1009,6 hPa 0,0 l/m 14,5 km/h (3 Bft) S45 185 4 min 49,8 klux 341 W/m
22.07.2017 09:50 24,1 C 55 % 1009,6 hPa 0,0 l/m 11,2 km/h (2 Bft) S-SW22.5 205 5 min 54,3 klux 371 W/m
22.07.2017 09:55 24,4 C 54 % 1009,6 hPa 0,0 l/m 13,5 km/h (3 Bft) S45 175 5 min 54,9 klux 376 W/m
22.07.2017 10:01 24,5 C 56 % 1009,6 hPa 0,0 l/m 19,0 km/h (3 Bft) S22.5 190 6 min 55,5 klux 380 W/m
22.07.2017 10:05 24,7 C 54 % 1009,6 hPa 0,0 l/m 15,7 km/h (3 Bft) S22.5 185 4 min 57,2 klux 391 W/m
22.07.2017 10:10 24,8 C 54 % 1009,6 hPa 0,0 l/m 17,0 km/h (3 Bft) S45 185 5 min 56,7 klux 388 W/m
22.07.2017 10:15 24,9 C 53 % 1009,6 hPa 0,0 l/m 12,9 km/h (3 Bft) S45 180 5 min 58,5 klux 400 W/m
22.07.2017 10:21 25,1 C 52 % 1009,6 hPa 0,0 l/m 12,3 km/h (2 Bft) S45 180 6 min 58,6 klux 401 W/m
22.07.2017 10:25 25,4 C 54 % 1009,6 hPa 0,0 l/m 10,3 km/h (2 Bft) S-SW45 195 4 min 59,4 klux 406 W/m
22.07.2017 10:30 25,6 C 55 % 1009,6 hPa 0,0 l/m 12,5 km/h (2 Bft) S22.5 170 5 min 61,8 klux 423 W/m
22.07.2017 10:35 25,5 C 52 % 1009,6 hPa 0,0 l/m 14,3 km/h (3 Bft) S22.5 170 5 min 62,0 klux 424 W/m
22.07.2017 10:40 25,5 C 54 % 1009,6 hPa 0,0 l/m 11,9 km/h (2 Bft) S-SO22.5 165 5 min 62,7 klux 429 W/m
22.07.2017 10:46 25,7 C 53 % 1009,6 hPa 0,0 l/m 11,8 km/h (2 Bft) S-SO22.5 160 6 min 65,9 klux 451 W/m
22.07.2017 10:51 25,7 C 53 % 1009,6 hPa 0,0 l/m 14,1 km/h (3 Bft) S22.5 180 5 min 65,2 klux 446 W/m
22.07.2017 10:55 26,0 C 48 % 1009,6 hPa 0,0 l/m 23,3 km/h (4 Bft) S-SW45 200 4 min 65,2 klux 446 W/m
22.07.2017 11:00 26,0 C 48 % 1009,6 hPa 0,0 l/m 15,2 km/h (3 Bft) S45 170 5 min 67,2 klux 460 W/m
22.07.2017 11:06 26,3 C 47 % 1009,6 hPa 0,0 l/m 16,8 km/h (3 Bft) S22.5 175 6 min 70,2 klux 480 W/m
22.07.2017 11:10 26,4 C 48 % 1009,6 hPa 0,0 l/m 11,1 km/h (2 Bft) S-SW22.5 210 4 min 78,9 klux 540 W/m
22.07.2017 11:15 26,6 C 47 % 1009,6 hPa 0,0 l/m 16,8 km/h (3 Bft) S22.5 170 0 min 31,5 klux 215 W/m
22.07.2017 11:20 26,6 C 46 % 1009,6 hPa 0,0 l/m 16,5 km/h (3 Bft) SW45 225 0 min 55,2 klux 378 W/m
22.07.2017 11:25 26,6 C 46 % 1009,6 hPa 0,0 l/m 15,1 km/h (3 Bft) SW22.5 215 0 min 28,8 klux 197 W/m
22.07.2017 11:31 26,6 C 47 % 1009,6 hPa 0,0 l/m 18,4 km/h (3 Bft) SW45 215 6 min 79,8 klux 546 W/m
22.07.2017 11:35 26,6 C 47 % 1009,6 hPa 0,0 l/m 20,0 km/h (4 Bft) SW45 230 4 min 90,0 klux 616 W/m
22.07.2017 11:40 26,7 C 46 % 1009,6 hPa 0,0 l/m 22,3 km/h (4 Bft) S-SW45 210 5 min 65,4 klux 447 W/m
22.07.2017 11:45 26,7 C 46 % 1009,6 hPa 0,0 l/m 17,5 km/h (3 Bft) S22.5 185 5 min 80,6 klux 551 W/m
22.07.2017 11:50 26,7 C 46 % 1009,6 hPa 0,0 l/m 16,3 km/h (3 Bft) S-SW45 195 5 min 87,1 klux 596 W/m
22.07.2017 11:56 26,7 C 46 % 1009,6 hPa 0,0 l/m 14,7 km/h (3 Bft) S22.5 170 6 min 68,1 klux 466 W/m
22.07.2017 12:00 26,9 C 45 % 1009,6 hPa 0,0 l/m 19,1 km/h (3 Bft) S22.5 180 0 min 35,9 klux 246 W/m
22.07.2017 12:05 26,9 C 45 % 1009,6 hPa 0,0 l/m 19,3 km/h (3 Bft) SW67.5 235 5 min 68,5 klux 469 W/m
22.07.2017 12:11 26,9 C 45 % 1009,6 hPa 0,0 l/m 23,1 km/h (4 Bft) SW45 235 0 min 33,8 klux 231 W/m
22.07.2017 12:15 26,0 C 48 % 1009,6 hPa 0,0 l/m 21,7 km/h (4 Bft) SW67.5 230 0 min 26,9 klux 184 W/m
22.07.2017 12:20 25,9 C 49 % 1009,6 hPa 0,0 l/m 23,5 km/h (4 Bft) SW45 235 0 min 26,9 klux 184 W/m
22.07.2017 12:25 26,1 C 48 % 1009,6 hPa 0,0 l/m 15,9 km/h (3 Bft) SW22.5 215 5 min 67,0 klux 458 W/m
22.07.2017 12:30 26,3 C 49 % 1009,6 hPa 0,0 l/m 19,6 km/h (3 Bft) SW45 225 5 min 70,4 klux 482 W/m
22.07.2017 12:36 26,3 C 49 % 1009,6 hPa 0,0 l/m 17,8 km/h (3 Bft) SW45 230 6 min 94,9 klux 649 W/m
22.07.2017 12:41 26,5 C 46 % 1009,6 hPa 0,0 l/m 22,6 km/h (4 Bft) W-SW22.5 250 5 min 79,9 klux 547 W/m
22.07.2017 12:45 26,4 C 47 % 1009,6 hPa 0,0 l/m 20,7 km/h (4 Bft) W45 265 4 min 81,9 klux 560 W/m
22.07.2017 12:50 26,4 C 47 % 1009,6 hPa 0,0 l/m 24,0 km/h (4 Bft) W45 260 5 min 84,2 klux 576 W/m
22.07.2017 12:55 26,4 C 47 % 1009,6 hPa 0,0 l/m 14,8 km/h (3 Bft) W-SW45 240 5 min 77,8 klux 532 W/m
22.07.2017 13:01 26,4 C 47 % 1009,6 hPa 0,0 l/m 17,1 km/h (3 Bft) SW45 230 6 min 80,3 klux 549 W/m
22.07.2017 13:05 26,4 C 47 % 1009,6 hPa 0,0 l/m 10,6 km/h (2 Bft) S45 190 4 min 79,9 klux 547 W/m
22.07.2017 13:10 27,3 C 47 % 1009,6 hPa 0,0 l/m 15,4 km/h (3 Bft) S67.5 170 5 min 86,7 klux 593 W/m
22.07.2017 13:15 27,4 C 47 % 1009,6 hPa 0,0 l/m 17,3 km/h (3 Bft) S-SO45 165 5 min 82,6 klux 565 W/m
22.07.2017 13:21 27,5 C 45 % 1009,6 hPa 0,0 l/m 14,0 km/h (3 Bft) S22.5 180 0 min 37,6 klux 257 W/m
22.07.2017 13:25 26,9 C 46 % 1009,6 hPa 0,0 l/m 11,0 km/h (2 Bft) SW45 230 4 min 84,6 klux 579 W/m
22.07.2017 13:30 27,0 C 47 % 1009,6 hPa 0,0 l/m 19,0 km/h (3 Bft) SW45 230 0 min 33,2 klux 227 W/m
22.07.2017 13:35 27,0 C 47 % 1009,6 hPa 0,0 l/m 16,1 km/h (3 Bft) W-SW45 245 5 min 94,6 klux 647 W/m
22.07.2017 13:40 27,6 C 46 % 1009,5 hPa 0,0 l/m 18,1 km/h (3 Bft) W-SW22.5 245 5 min 85,9 klux 588 W/m
22.07.2017 13:46 27,8 C 45 % 1009,5 hPa 0,0 l/m 16,7 km/h (3 Bft) SW22.5 225 0 min 19,9 klux 136 W/m
22.07.2017 13:51 27,5 C 46 % 1009,6 hPa 0,0 l/m 14,3 km/h (3 Bft) S-SW45 210 5 min 88,7 klux 607 W/m
22.07.2017 13:55 27,5 C 48 % 1009,6 hPa 0,0 l/m 6,3 km/h (2 Bft) S-SO22.5 165 4 min 79,7 klux 545 W/m
22.07.2017 14:00 27,6 C 46 % 1009,5 hPa 0,0 l/m 7,1 km/h (2 Bft) S-SO22.5 150 5 min 83,3 klux 570 W/m
22.07.2017 14:06 27,6 C 44 % 1009,5 hPa 0,0 l/m 9,4 km/h (2 Bft) O22.5 100 6 min 84,2 klux 576 W/m
22.07.2017 14:10 27,5 C 47 % 1009,6 hPa 0,0 l/m 7,9 km/h (2 Bft) O45 90 4 min 93,2 klux 637 W/m
22.07.2017 14:15 28,0 C 45 % 1009,5 hPa 0,0 l/m 18,5 km/h (3 Bft) SW45 225 5 min 89,7 klux 614 W/m
22.07.2017 14:20 28,2 C 46 % 1009,5 hPa 0,0 l/m 18,5 km/h (3 Bft) SW22.5 230 5 min 84,7 klux 579 W/m
22.07.2017 14:25 28,6 C 44 % 1009,5 hPa 0,0 l/m 24,6 km/h (4 Bft) SW45 215 5 min 78,7 klux 538 W/m
22.07.2017 14:31 28,4 C 44 % 1009,5 hPa 0,0 l/m 15,7 km/h (3 Bft) W-SW45 240 6 min 83,2 klux 569 W/m
22.07.2017 14:35 28,4 C 44 % 1009,5 hPa 0,0 l/m 13,8 km/h (3 Bft) SW45 230 4 min 85,5 klux 585 W/m
22.07.2017 14:40 28,4 C 45 % 1009,5 hPa 0,0 l/m 13,8 km/h (3 Bft) S-SW45 195 0 min 38,2 klux 261 W/m
22.07.2017 14:45 28,0 C 45 % 1009,5 hPa 0,0 l/m 11,3 km/h (2 Bft) SW22.5 230 0 min 26,3 klux 180 W/m
22.07.2017 14:50 28,5 C 45 % 1009,5 hPa 0,0 l/m 14,0 km/h (3 Bft) S-SW22.5 210 5 min 85,2 klux 583 W/m
22.07.2017 14:56 28,8 C 45 % 1009,5 hPa 0,0 l/m 14,6 km/h (3 Bft) S-SW22.5 195 6 min 83,0 klux 568 W/m
22.07.2017 15:01 29,0 C 44 % 1009,5 hPa 0,0 l/m 14,7 km/h (3 Bft) SW45 220 5 min 76,4 klux 523 W/m
22.07.2017 15:05 29,2 C 44 % 1009,5 hPa 0,0 l/m 17,7 km/h (3 Bft) S22.5 190 4 min 79,7 klux 545 W/m
22.07.2017 15:11 29,2 C 44 % 1009,5 hPa 0,0 l/m 12,2 km/h (2 Bft) S-SW22.5 200 6 min 78,5 klux 537 W/m
22.07.2017 15:16 29,2 C 43 % 1009,5 hPa 0,0 l/m 8,6 km/h (2 Bft) SW22.5 215 5 min 72,5 klux 496 W/m
22.07.2017 15:20 28,9 C 43 % 1009,5 hPa 0,0 l/m 18,5 km/h (3 Bft) SW67.5 215 4 min 86,6 klux 592 W/m
22.07.2017 15:25 28,7 C 43 % 1009,5 hPa 0,0 l/m 9,9 km/h (2 Bft) W-SW45 240 5 min 79,0 klux 540 W/m
22.07.2017 15:30 28,8 C 44 % 1008,5 hPa 0,0 l/m 15,1 km/h (3 Bft) S-SW22.5 210 5 min 71,8 klux 491 W/m
22.07.2017 15:35 29,1 C 44 % 1008,5 hPa 0,0 l/m 6,2 km/h (2 Bft) S67.5 175 5 min 79,7 klux 545 W/m
22.07.2017 15:41 29,6 C 43 % 1008,5 hPa 0,0 l/m 12,0 km/h (2 Bft) S-SW67.5 210 6 min 79,9 klux 547 W/m
22.07.2017 15:45 29,6 C 43 % 1008,5 hPa 0,0 l/m 15,4 km/h (3 Bft) SW45 215 4 min 75,8 klux 518 W/m
22.07.2017 15:50 29,8 C 42 % 1008,5 hPa 0,0 l/m 13,5 km/h (3 Bft) S67.5 185 5 min 68,1 klux 466 W/m
22.07.2017 15:55 29,7 C 42 % 1008,5 hPa 0,0 l/m 17,5 km/h (3 Bft) S-SW22.5 195 5 min 64,8 klux 443 W/m
22.07.2017 16:00 29,5 C 41 % 1008,5 hPa 0,0 l/m 11,2 km/h (2 Bft) S22.5 185 0 min 54,9 klux 376 W/m
22.07.2017 16:05 29,2 C 41 % 1008,5 hPa 0,0 l/m 9,1 km/h (2 Bft) S-SO22.5 165 0 min 27,7 klux 189 W/m
22.07.2017 16:10 28,6 C 45 % 1008,5 hPa 0,0 l/m 7,9 km/h (2 Bft) S-SO 160 0 min 29,9 klux 205 W/m
22.07.2017 16:15 28,3 C 47 % 1008,5 hPa 0,0 l/m 12,5 km/h (2 Bft) O67.5 95 5 min 65,3 klux 447 W/m
22.07.2017 16:21 28,6 C 47 % 1008,5 hPa 0,0 l/m 9,1 km/h (2 Bft) NO45 55 6 min 80,6 klux 551 W/m
22.07.2017 16:26 29,1 C 44 % 1008,5 hPa 0,0 l/m 13,5 km/h (3 Bft) SO67.5 125 5 min 82,1 klux 562 W/m
22.07.2017 16:30 29,2 C 43 % 1008,5 hPa 0,0 l/m 15,9 km/h (3 Bft) S45 170 4 min 76,0 klux 520 W/m
22.07.2017 16:35 29,2 C 42 % 1008,5 hPa 0,0 l/m 30,7 km/h (5 Bft) W67.5 260 5 min 78,9 klux 540 W/m
22.07.2017 16:40 29,4 C 39 % 1008,5 hPa 0,0 l/m 20,4 km/h (4 Bft) SW45 230 0 min 24,0 klux 164 W/m
22.07.2017 16:46 29,8 C 38 % 1008,5 hPa 0,0 l/m 24,5 km/h (4 Bft) W-SW45 245 6 min 74,9 klux 512 W/m
22.07.2017 16:51 30,0 C 38 % 1008,5 hPa 0,0 l/m 23,8 km/h (4 Bft) SW22.5 235 5 min 76,6 klux 524 W/m
22.07.2017 16:55 29,7 C 37 % 1008,5 hPa 0,0 l/m 28,6 km/h (5 Bft) SW22.5 230 4 min 79,8 klux 546 W/m
22.07.2017 17:00 30,0 C 37 % 1008,5 hPa 0,0 l/m 23,1 km/h (4 Bft) SW45 230 5 min 70,2 klux 480 W/m
22.07.2017 17:06 30,0 C 37 % 1008,5 hPa 0,0 l/m 25,8 km/h (4 Bft) SW45 235 6 min 72,6 klux 497 W/m
22.07.2017 17:10 30,0 C 37 % 1008,5 hPa 0,0 l/m 18,3 km/h (3 Bft) S-SW45 195 4 min 66,0 klux 451 W/m
22.07.2017 17:15 30,0 C 37 % 1008,5 hPa 0,0 l/m 25,2 km/h (4 Bft) S-SW67.5 195 5 min 60,9 klux 417 W/m
22.07.2017 17:20 29,4 C 37 % 1008,5 hPa 0,0 l/m 30,2 km/h (5 Bft) SW45 225 5 min 60,9 klux 417 W/m
22.07.2017 17:25 29,4 C 37 % 1008,5 hPa 0,0 l/m 27,8 km/h (5 Bft) SW45 225 5 min 60,0 klux 410 W/m
22.07.2017 17:31 29,8 C 37 % 1008,5 hPa 0,0 l/m 22,3 km/h (4 Bft) SW45 225 6 min 60,0 klux 410 W/m
22.07.2017 17:35 29,7 C 35 % 1008,5 hPa 0,0 l/m 30,0 km/h (5 Bft) SW67.5 235 4 min 56,8 klux 389 W/m
22.07.2017 17:40 29,7 C 35 % 1008,5 hPa 0,0 l/m 31,2 km/h (5 Bft) SW45 225 5 min 53,9 klux 369 W/m
22.07.2017 17:45 29,1 C 37 % 1008,5 hPa 0,0 l/m 27,1 km/h (5 Bft) SW67.5 225 5 min 53,9 klux 369 W/m
22.07.2017 17:50 29,3 C 36 % 1008,5 hPa 0,0 l/m 23,0 km/h (4 Bft) SW45 220 5 min 52,4 klux 358 W/m
22.07.2017 17:56 29,4 C 37 % 1008,5 hPa 0,0 l/m 23,3 km/h (4 Bft) SW22.5 230 6 min 51,5 klux 352 W/m
22.07.2017 18:00 29,5 C 36 % 1008,5 hPa 0,0 l/m 26,1 km/h (4 Bft) SW45 230 4 min 50,1 klux 343 W/m
22.07.2017 18:05 29,3 C 37 % 1008,5 hPa 0,0 l/m 21,1 km/h (4 Bft) SW22.5 235 5 min 45,6 klux 312 W/m
22.07.2017 18:11 28,9 C 37 % 1008,5 hPa 0,0 l/m 27,5 km/h (5 Bft) SW45 230 0 min 11,3 klux 77 W/m
22.07.2017 18:16 28,2 C 38 % 1008,5 hPa 0,0 l/m 27,0 km/h (5 Bft) W-SW45 240 0 min 9,8 klux 67 W/m
22.07.2017 18:20 27,5 C 40 % 1008,5 hPa 0,0 l/m 27,5 km/h (5 Bft) SW45 235 0 min 10,7 klux 73 W/m
22.07.2017 18:25 27,5 C 40 % 1008,5 hPa 0,0 l/m 26,2 km/h (4 Bft) SW22.5 235 0 min 18,6 klux 127 W/m
22.07.2017 18:30 28,0 C 39 % 1008,5 hPa 0,0 l/m 26,0 km/h (4 Bft) W-SW45 245 5 min 48,2 klux 330 W/m
22.07.2017 18:36 27,8 C 39 % 1008,5 hPa 0,0 l/m 26,2 km/h (4 Bft) W22.5 270 6 min 38,0 klux 260 W/m
22.07.2017 18:41 27,3 C 40 % 1008,5 hPa 0,0 l/m 30,0 km/h (5 Bft) W22.5 265 0 min 17,0 klux 116 W/m
22.07.2017 18:45 27,3 C 40 % 1008,5 hPa 0,0 l/m 29,3 km/h (5 Bft) W22.5 260 4 min 34,6 klux 237 W/m
22.07.2017 18:50 27,2 C 40 % 1008,6 hPa 0,0 l/m 18,7 km/h (3 Bft) W-SW45 250 0 min 11,7 klux 80 W/m
22.07.2017 18:55 27,0 C 41 % 1008,6 hPa 0,0 l/m 24,8 km/h (4 Bft) W-SW45 250 0 min 9,4 klux 65 W/m
22.07.2017 19:01 26,9 C 42 % 1008,6 hPa 0,0 l/m 27,2 km/h (5 Bft) W-SW22.5 240 0 min 9,1 klux 62 W/m
22.07.2017 19:05 26,7 C 42 % 1008,6 hPa 0,0 l/m 26,3 km/h (4 Bft) W-SW22.5 240 0 min 9,8 klux 67 W/m
22.07.2017 19:10 26,5 C 42 % 1008,6 hPa 0,0 l/m 28,0 km/h (5 Bft) W-SW22.5 240 0 min 10,1 klux 69 W/m
22.07.2017 19:16 26,5 C 43 % 1008,6 hPa 0,0 l/m 27,0 km/h (5 Bft) W-SW45 255 0 min 9,6 klux 66 W/m
22.07.2017 19:21 26,3 C 43 % 1008,6 hPa 0,0 l/m 23,6 km/h (4 Bft) W45 280 0 min 10,0 klux 68 W/m
22.07.2017 19:25 26,0 C 43 % 1008,6 hPa 0,0 l/m 22,8 km/h (4 Bft) W45 270 0 min 10,0 klux 68 W/m
22.07.2017 19:30 26,1 C 45 % 1008,6 hPa 0,0 l/m 20,6 km/h (4 Bft) W-NW22.5 285 0 min 18,3 klux 125 W/m
22.07.2017 19:35 26,4 C 45 % 1008,6 hPa 0,0 l/m 20,3 km/h (4 Bft) W-NW45 295 5 min 33,5 klux 229 W/m
22.07.2017 19:41 26,4 C 45 % 1008,6 hPa 0,0 l/m 27,2 km/h (5 Bft) W22.5 275 0 min 12,5 klux 86 W/m
22.07.2017 19:46 25,8 C 47 % 1008,6 hPa 0,0 l/m 19,5 km/h (3 Bft) W-NW22.5 285 0 min 11,5 klux 79 W/m
22.07.2017 19:50 25,6 C 48 % 1008,6 hPa 0,0 l/m 20,3 km/h (4 Bft) W-NW22.5 285 0 min 11,5 klux 79 W/m
22.07.2017 19:55 25,6 C 48 % 1008,6 hPa 0,0 l/m 23,3 km/h (4 Bft) W22.5 275 0 min 3,36 klux 23 W/m
22.07.2017 20:00 25,1 C 48 % 1008,6 hPa 0,0 l/m 25,2 km/h (4 Bft) W-NW22.5 285 0 min 2,87 klux 20 W/m
22.07.2017 20:05 25,0 C 48 % 1008,6 hPa 0,0 l/m 19,0 km/h (3 Bft) W-NW22.5 285 0 min 2,30 klux 16 W/m
22.07.2017 20:10 24,9 C 50 % 1008,6 hPa 0,0 l/m 13,7 km/h (3 Bft) W-NW22.5 290 0 min 3,19 klux 22 W/m
22.07.2017 20:15 24,9 C 50 % 1008,6 hPa 0,0 l/m 13,6 km/h (3 Bft) W-NW22.5 290 0 min 3,64 klux 25 W/m
22.07.2017 20:21 24,8 C 50 % 1008,6 hPa 0,0 l/m 12,9 km/h (3 Bft) W-NW22.5 290 0 min 3,89 klux 27 W/m
22.07.2017 20:26 24,8 C 50 % 1008,6 hPa 0,0 l/m 7,2 km/h (2 Bft) W 280 0 min 5,35 klux 37 W/m
22.07.2017 20:30 24,8 C 51 % 1008,6 hPa 0,0 l/m 8,7 km/h (2 Bft) NW22.5 305 0 min 5,15 klux 35 W/m
22.07.2017 20:35 24,7 C 51 % 1008,6 hPa 0,0 l/m 6,1 km/h (2 Bft) W-NW 285 0 min 2,94 klux 20 W/m
22.07.2017 20:40 24,6 C 51 % 1008,6 hPa 0,0 l/m 8,3 km/h (2 Bft) NW22.5 305 0 min 1,95 klux 13 W/m
22.07.2017 20:45 24,6 C 52 % 1008,6 hPa 0,0 l/m 7,9 km/h (2 Bft) NW22.5 305 0 min 2,73 klux 19 W/m
22.07.2017 20:51 24,4 C 52 % 1008,6 hPa 0,0 l/m 8,7 km/h (2 Bft) NW22.5 305 0 min 2,72 klux 19 W/m
22.07.2017 20:55 24,4 C 52 % 1008,6 hPa 0,0 l/m 9,4 km/h (2 Bft) W-NW22.5 300 0 min 2,36 klux 16 W/m
22.07.2017 21:00 24,2 C 53 % 1008,6 hPa 0,0 l/m 11,5 km/h (2 Bft) W-NW 295 0 min 1,98 klux 14 W/m
22.07.2017 21:06 24,1 C 53 % 1008,6 hPa 0,0 l/m 12,0 km/h (2 Bft) NW 305 0 min 1,41 klux 10 W/m
22.07.2017 21:11 24,0 C 53 % 1008,6 hPa 0,0 l/m 8,3 km/h (2 Bft) W-NW 300 0 min 1,23 klux 8 W/m
22.07.2017 21:15 23,7 C 55 % 1008,6 hPa 0,0 l/m 12,7 km/h (3 Bft) NW22.5 315 0 min 1,00 klux 7 W/m
22.07.2017 21:20 23,5 C 56 % 1008,6 hPa 0,0 l/m 10,0 km/h (2 Bft) NW22.5 305 0 min 734 lux 5 W/m
22.07.2017 21:25 23,5 C 56 % 1008,6 hPa 0,0 l/m 9,6 km/h (2 Bft) NW22.5 305 0 min 676 lux 5 W/m
22.07.2017 21:30 23,1 C 57 % 1008,6 hPa 0,0 l/m 20,8 km/h (4 Bft) W-NW22.5 300 0 min 481 lux 0 W/m
22.07.2017 21:35 23,2 C 57 % 1008,6 hPa 0,0 l/m 17,5 km/h (3 Bft) NW22.5 315 0 min 255 lux 0 W/m
22.07.2017 21:40 22,9 C 56 % 1008,6 hPa 0,0 l/m 15,8 km/h (3 Bft) NW22.5 315 0 min 165 lux 0 W/m
22.07.2017 21:46 22,8 C 57 % 1008,6 hPa 0,0 l/m 16,2 km/h (3 Bft) NW22.5 320 0 min 89 lux 0 W/m
22.07.2017 21:51 22,7 C 58 % 1008,6 hPa 0,0 l/m 14,8 km/h (3 Bft) NW22.5 305 0 min 67 lux 0 W/m
22.07.2017 21:55 22,4 C 59 % 1008,6 hPa 0,0 l/m 15,6 km/h (3 Bft) W-NW45 300 0 min 33 lux 0 W/m
22.07.2017 22:00 22,2 C 59 % 1008,6 hPa 0,0 l/m 14,6 km/h (3 Bft) NW22.5 305 0 min 12 lux 0 W/m
22.07.2017 22:06 22,0 C 60 % 1008,6 hPa 0,0 l/m 17,6 km/h (3 Bft) NW22.5 305 0 min 4 lux 0 W/m
22.07.2017 22:10 22,0 C 61 % 1009,6 hPa 0,0 l/m 14,2 km/h (3 Bft) W-NW22.5 295 0 min 0 lux 0 W/m
22.07.2017 22:15 22,0 C 61 % 1009,6 hPa 0,0 l/m 11,8 km/h (2 Bft) W-NW22.5 295 0 min 0 lux 0 W/m
22.07.2017 22:20 21,8 C 62 % 1009,6 hPa 0,0 l/m 14,5 km/h (3 Bft) W-NW45 295 0 min 0 lux 0 W/m
22.07.2017 22:26 21,5 C 63 % 1009,6 hPa 0,0 l/m 20,1 km/h (4 Bft) W22.5 280 0 min 0 lux 0 W/m
22.07.2017 22:31 21,5 C 63 % 1009,6 hPa 0,0 l/m 23,1 km/h (4 Bft) W45 280 0 min 0 lux 0 W/m
22.07.2017 22:35 21,5 C 63 % 1009,6 hPa 0,0 l/m 21,3 km/h (4 Bft) W-NW22.5 300 0 min 0 lux 0 W/m
22.07.2017 22:40 20,6 C 69 % 1009,6 hPa 0,0 l/m 22,1 km/h (4 Bft) NW22.5 305 0 min 0 lux 0 W/m
22.07.2017 22:45 20,4 C 69 % 1009,6 hPa 0,0 l/m 27,8 km/h (5 Bft) W22.5 280 0 min 0 lux 0 W/m
22.07.2017 22:51 20,2 C 69 % 1009,6 hPa 0,0 l/m 24,8 km/h (4 Bft) W-NW22.5 295 0 min 0 lux 0 W/m
22.07.2017 22:56 20,1 C 70 % 1009,6 hPa 0,0 l/m 22,5 km/h (4 Bft) NW22.5 305 0 min 0 lux 0 W/m
22.07.2017 23:00 19,6 C 71 % 1009,6 hPa 0,0 l/m 22,2 km/h (4 Bft) W-NW22.5 300 0 min 0 lux 0 W/m
22.07.2017 23:06 19,6 C 71 % 1009,6 hPa 0,0 l/m 23,6 km/h (4 Bft) NW45 305 0 min 0 lux 0 W/m
22.07.2017 23:11 19,5 C 72 % 1009,6 hPa 0,0 l/m 20,8 km/h (4 Bft) W-NW45 300 0 min 0 lux 0 W/m
22.07.2017 23:15 19,4 C 72 % 1009,6 hPa 0,0 l/m 17,8 km/h (3 Bft) W-NW22.5 300 0 min 0 lux 0 W/m
22.07.2017 23:20 19,4 C 72 % 1009,6 hPa 0,0 l/m 25,6 km/h (4 Bft) W22.5 270 0 min 0 lux 0 W/m
22.07.2017 23:25 19,4 C 73 % 1010,7 hPa 0,0 l/m 25,6 km/h (4 Bft) W22.5 270 0 min 0 lux 0 W/m
22.07.2017 23:31 19,4 C 73 % 1010,7 hPa 0,0 l/m 27,6 km/h (5 Bft) W-SW45 255 0 min 0 lux 0 W/m
22.07.2017 23:36 19,1 C 74 % 1010,7 hPa 0,0 l/m 26,7 km/h (4 Bft) W45 275 0 min 0 lux 0 W/m
22.07.2017 23:40 19,0 C 74 % 1010,7 hPa 0,0 l/m 25,6 km/h (4 Bft) W45 260 0 min 0 lux 0 W/m
22.07.2017 23:45 18,8 C 76 % 1010,7 hPa 0,0 l/m 19,1 km/h (3 Bft) W22.5 270 0 min 0 lux 0 W/m
22.07.2017 23:50 18,4 C 78 % 1010,7 hPa 0,0 l/m 20,1 km/h (4 Bft) W-NW45 285 0 min 0 lux 0 W/m
22.07.2017 23:56 18,4 C 78 % 1010,7 hPa 0,1 l/m 17,7 km/h (3 Bft) W22.5 275 0 min 0 lux 0 W/m
_ Min-Zeit 23:50 17:35 02:16 - 00:16 - - - - -
Minimum _ 18,4 C 35 % 1007,6 hPa - 0,0 km/h (0 Bft) - - - - -
_ Max-Zeit 16:51 07:10 23:50 23:56 17:40 - - 07:16 12:36 12:36
Maximum _ 30,0 C 79 % 1010,7 hPa 0,1 l/m 31,2 km/h
SW (5 Bft)
- - 6 min 94,9 klux 649 W/m
Durchschnitt _ 23,8 C 57 % 1009,0 hPa #0,1 l/m 14,2 km/h (3 Bft) S-SO - #9:49 h 28,6 klux 299 W/m